createdAt,value
2023-05-05T00:01:48.322Z,12.18
2023-05-05T00:04:15.296Z,12.60
2023-05-05T00:06:44.474Z,10.98
2023-05-05T00:09:11.594Z,11.95
2023-05-05T00:11:38.892Z,14.20
2023-05-05T00:14:07.137Z,13.77
2023-05-05T00:16:34.267Z,12.57
2023-05-05T00:19:01.292Z,12.50
2023-05-05T00:21:28.251Z,12.52
2023-05-05T00:23:56.501Z,15.32
2023-05-05T00:26:23.395Z,13.93
2023-05-05T00:28:52.578Z,12.80
2023-05-05T00:31:19.756Z,14.43
2023-05-05T00:33:46.883Z,13.35
2023-05-05T00:36:15.191Z,16.17
2023-05-05T00:38:44.581Z,15.25
2023-05-05T00:41:11.402Z,16.85
2023-05-05T00:43:38.857Z,18.08
2023-05-05T00:46:26.317Z,19.00
2023-05-05T00:48:54.799Z,21.58
2023-05-05T00:51:22.952Z,23.00
2023-05-05T00:53:50.503Z,21.90
2023-05-05T00:56:19.707Z,21.30
2023-05-05T00:58:47.217Z,21.10
2023-05-05T01:01:15.720Z,20.13
2023-05-05T01:03:43.001Z,17.50
2023-05-05T01:06:30.559Z,22.67
2023-05-05T01:09:02.734Z,14.90
2023-05-05T01:11:59.912Z,15.55
2023-05-05T01:14:39.889Z,16.67
2023-05-05T01:17:28.392Z,12.52
2023-05-05T01:20:21.044Z,18.90
2023-05-05T01:23:00.991Z,16.38
2023-05-05T01:25:54.110Z,14.30
2023-05-05T01:28:45.830Z,16.50
2023-05-05T01:31:33.283Z,19.45
2023-05-05T01:34:03.803Z,15.02
2023-05-05T01:36:42.487Z,15.60
2023-05-05T01:39:14.891Z,18.25
2023-05-05T01:41:51.506Z,16.80
2023-05-05T01:44:20.131Z,17.77
2023-05-05T01:46:49.150Z,14.23
2023-05-05T01:49:16.923Z,16.35
2023-05-05T01:51:48.163Z,17.95
2023-05-05T01:54:16.708Z,18.38
2023-05-05T01:56:44.572Z,18.92
2023-05-05T01:59:14.205Z,15.57
2023-05-05T02:01:44.888Z,14.93
2023-05-05T02:04:14.547Z,16.42
2023-05-05T02:06:43.236Z,16.90
2023-05-05T02:09:13.106Z,15.75
2023-05-05T02:11:41.342Z,17.50
2023-05-05T02:14:12.432Z,17.67
2023-05-05T02:16:41.440Z,15.63
2023-05-05T02:19:08.932Z,18.27
2023-05-05T02:21:36.042Z,16.52
2023-05-05T02:24:03.739Z,16.73
2023-05-05T02:26:35.038Z,18.23
2023-05-05T02:29:10.952Z,14.20
2023-05-05T02:31:44.440Z,14.85
2023-05-05T02:34:13.870Z,14.93
2023-05-05T02:36:42.924Z,13.80
2023-05-05T02:39:17.041Z,12.73
2023-05-05T02:41:47.084Z,11.75
2023-05-05T02:44:24.778Z,15.00
2023-05-05T02:46:54.338Z,12.48
2023-05-05T02:49:21.820Z,12.63
2023-05-05T02:51:49.224Z,9.18
2023-05-05T02:54:23.437Z,8.77
2023-05-05T02:56:54.778Z,13.82
2023-05-05T02:59:34.746Z,10.70
2023-05-05T03:02:19.090Z,9.80
2023-05-05T03:04:50.772Z,14.35
2023-05-05T03:07:25.796Z,10.80
2023-05-05T03:10:20.365Z,13.10
2023-05-05T03:12:59.979Z,9.35
2023-05-05T03:15:43.013Z,14.40
2023-05-05T03:18:11.831Z,11.73
2023-05-05T03:20:42.878Z,17.55
2023-05-05T03:23:13.848Z,18.00
2023-05-05T03:25:48.307Z,22.27
2023-05-05T03:28:47.326Z,19.55
2023-05-05T03:31:28.778Z,18.02
2023-05-05T03:33:59.243Z,18.17
2023-05-05T03:36:32.048Z,19.33
2023-05-05T03:39:00.945Z,16.98
2023-05-05T03:41:31.658Z,20.02
2023-05-05T03:43:59.024Z,21.23
2023-05-05T03:46:31.561Z,17.05
2023-05-05T03:48:58.553Z,18.50
2023-05-05T03:51:27.082Z,24.27
2023-05-05T03:53:54.754Z,21.85
2023-05-05T03:56:22.705Z,20.75
2023-05-05T03:58:51.234Z,22.98
2023-05-05T04:01:19.610Z,21.88
2023-05-05T04:03:48.227Z,23.20
2023-05-05T04:06:15.929Z,25.10
2023-05-05T04:08:43.132Z,20.05
2023-05-05T04:11:10.432Z,24.48
2023-05-05T04:13:37.935Z,17.60
2023-05-05T04:16:05.261Z,19.13
2023-05-05T04:18:32.802Z,20.50
2023-05-05T04:20:59.855Z,17.52
2023-05-05T04:23:27.111Z,19.80
2023-05-05T04:25:54.319Z,23.75
2023-05-05T04:28:22.421Z,21.23
2023-05-05T04:30:49.969Z,19.83
2023-05-05T04:33:17.129Z,21.23
2023-05-05T04:35:46.140Z,18.13
2023-05-05T04:38:13.322Z,19.30
2023-05-05T04:40:41.460Z,16.95
2023-05-05T04:43:09.919Z,17.52
2023-05-05T04:45:38.441Z,22.08
2023-05-05T04:48:05.986Z,22.77
2023-05-05T04:50:33.071Z,20.10
2023-05-05T04:53:00.413Z,17.50
2023-05-05T04:55:28.248Z,19.02
2023-05-05T04:57:55.662Z,17.65
2023-05-05T05:00:24.337Z,19.63
2023-05-05T05:02:53.355Z,18.38
2023-05-05T05:05:20.346Z,17.67
2023-05-05T05:07:47.479Z,20.27
2023-05-05T05:10:15.285Z,16.27
2023-05-05T05:12:42.412Z,19.15
2023-05-05T05:15:12.955Z,14.05
2023-05-05T05:17:40.548Z,16.48
2023-05-05T05:20:08.507Z,16.95
2023-05-05T05:22:38.432Z,13.18
2023-05-05T05:25:09.152Z,11.25
2023-05-05T05:27:36.257Z,15.43
2023-05-05T05:30:03.738Z,16.35
2023-05-05T05:32:32.811Z,16.08
2023-05-05T05:34:59.969Z,12.98
2023-05-05T05:37:31.404Z,12.85
2023-05-05T05:39:59.368Z,15.93
2023-05-05T05:42:28.275Z,15.07
2023-05-05T05:44:55.425Z,12.88
2023-05-05T05:47:22.521Z,14.00
2023-05-05T05:49:50.711Z,18.77
2023-05-05T05:52:17.931Z,15.57
2023-05-05T05:54:44.866Z,17.00
2023-05-05T05:57:12.090Z,14.07
2023-05-05T05:59:39.167Z,12.20
2023-05-05T06:02:08.236Z,16.40
2023-05-05T06:04:35.824Z,12.20
2023-05-05T06:07:03.596Z,14.23
2023-05-05T06:09:30.885Z,12.45
2023-05-05T06:11:58.058Z,11.90
2023-05-05T06:14:25.198Z,10.77
2023-05-05T06:16:53.319Z,8.95
2023-05-05T06:19:22.697Z,10.68
2023-05-05T06:21:49.990Z,9.07
2023-05-05T06:24:16.864Z,8.27
2023-05-05T06:26:43.852Z,9.07
2023-05-05T06:29:12.334Z,10.13
2023-05-05T06:31:39.483Z,8.15
2023-05-05T06:34:06.534Z,9.35
2023-05-05T06:36:33.556Z,6.75
2023-05-05T06:39:00.618Z,6.20
2023-05-05T06:41:27.801Z,7.35
2023-05-05T06:43:55.074Z,6.55
2023-05-05T06:46:22.017Z,7.35
2023-05-05T06:48:49.197Z,8.68
2023-05-05T06:51:16.788Z,6.00
2023-05-05T06:53:43.700Z,6.93
2023-05-05T06:56:11.574Z,5.20
2023-05-05T06:58:38.439Z,5.30
2023-05-05T07:01:05.330Z,4.53
2023-05-05T07:03:32.349Z,5.63
2023-05-05T07:05:59.221Z,5.85
2023-05-05T07:08:26.276Z,6.90
2023-05-05T07:10:53.189Z,4.05
2023-05-05T07:13:20.167Z,4.97
2023-05-05T07:15:47.201Z,3.20
2023-05-05T07:18:14.979Z,5.35
2023-05-05T07:20:42.707Z,4.90
2023-05-05T07:23:10.291Z,5.50
2023-05-05T07:25:37.654Z,3.80
2023-05-05T07:28:04.969Z,5.32
2023-05-05T07:30:32.021Z,5.22
2023-05-05T07:32:59.051Z,5.50
2023-05-05T07:35:26.594Z,5.80
2023-05-05T07:37:53.488Z,4.80
2023-05-05T07:40:21.088Z,6.97
2023-05-05T07:42:48.050Z,4.60
2023-05-05T07:45:15.250Z,4.00
2023-05-05T07:47:42.308Z,4.40
2023-05-05T07:50:09.657Z,4.25
2023-05-05T07:52:46.456Z,4.20
2023-05-05T07:55:17.124Z,2.90
2023-05-05T07:57:44.041Z,4.07
2023-05-05T08:00:13.299Z,2.40
2023-05-05T08:02:40.679Z,3.00
2023-05-05T08:05:08.366Z,4.88
2023-05-05T08:07:37.192Z,3.03
2023-05-05T08:10:04.173Z,2.92
2023-05-05T08:12:31.245Z,3.25
2023-05-05T08:14:58.640Z,5.55
2023-05-05T08:17:27.169Z,4.10
2023-05-05T08:19:54.618Z,7.38
2023-05-05T08:22:22.440Z,5.80
2023-05-05T08:24:49.396Z,3.15
2023-05-05T08:27:16.748Z,4.07
2023-05-05T08:29:43.694Z,4.57
2023-05-05T08:32:10.932Z,2.35
2023-05-05T08:34:37.914Z,2.97
2023-05-05T08:37:05.235Z,3.33
2023-05-05T08:39:32.168Z,5.10
2023-05-05T08:41:59.378Z,1.63
2023-05-05T08:44:27.215Z,3.00
2023-05-05T08:46:54.965Z,3.70
2023-05-05T08:49:22.768Z,3.28
2023-05-05T08:51:52.460Z,4.07
2023-05-05T08:54:20.782Z,4.68
2023-05-05T08:56:51.661Z,2.38
2023-05-05T08:59:20.911Z,3.22
2023-05-05T09:01:48.526Z,1.88
2023-05-05T09:04:16.484Z,3.17
2023-05-05T09:06:43.450Z,4.25
2023-05-05T09:09:11.241Z,1.73
2023-05-05T09:11:39.582Z,2.83
2023-05-05T09:14:06.680Z,2.38
2023-05-05T09:16:33.701Z,2.17
2023-05-05T09:19:04.445Z,2.42
2023-05-05T09:21:32.391Z,1.90
2023-05-05T09:24:11.483Z,2.85
2023-05-05T09:26:46.765Z,2.08
2023-05-05T09:29:23.479Z,1.98
2023-05-05T09:32:11.057Z,1.45
2023-05-05T09:34:38.319Z,0.93
2023-05-05T09:37:06.290Z,3.13
2023-05-05T09:39:33.375Z,2.95
2023-05-05T09:42:03.328Z,1.85
2023-05-05T09:44:38.149Z,2.55
2023-05-05T09:47:09.379Z,2.15
2023-05-05T09:49:39.347Z,3.08
2023-05-05T09:52:16.377Z,4.97
2023-05-05T09:57:40.617Z,5.20
2023-05-05T10:00:09.321Z,4.90
2023-05-05T10:02:39.415Z,3.63
2023-05-05T10:05:13.332Z,10.57
2023-05-05T10:07:43.414Z,12.20
2023-05-05T10:10:12.578Z,3.70
2023-05-05T10:12:40.259Z,5.55
2023-05-05T10:15:11.467Z,4.90
2023-05-05T10:18:02.145Z,7.38
2023-05-05T10:20:33.787Z,7.28
2023-05-05T10:23:06.089Z,3.47
2023-05-05T10:25:42.357Z,3.90
2023-05-05T10:28:12.084Z,3.53
2023-05-05T10:30:46.253Z,3.15
2023-05-05T10:33:31.625Z,2.55
2023-05-05T10:36:03.829Z,3.33
2023-05-05T10:38:32.293Z,4.50
2023-05-05T10:41:03.725Z,3.22
2023-05-05T10:43:32.254Z,4.72
2023-05-05T10:46:00.839Z,4.57
2023-05-05T10:48:36.217Z,4.10
2023-05-05T10:51:39.855Z,3.55
2023-05-05T10:54:21.458Z,2.53
2023-05-05T10:56:49.084Z,3.92
2023-05-05T10:59:38.352Z,4.07
2023-05-05T11:02:30.128Z,4.03
2023-05-05T11:05:16.967Z,2.95
2023-05-05T11:07:45.647Z,4.05
2023-05-05T11:10:15.067Z,5.80
2023-05-05T11:12:54.468Z,3.50
2023-05-05T11:15:24.602Z,5.20
2023-05-05T11:17:51.786Z,6.10
2023-05-05T11:20:43.683Z,3.55
2023-05-05T11:23:10.573Z,5.32
2023-05-05T11:25:38.070Z,9.05
2023-05-05T11:28:56.604Z,10.75
2023-05-05T11:31:24.206Z,14.52
2023-05-05T11:33:51.477Z,6.75
2023-05-05T11:36:20.545Z,8.30
2023-05-05T11:38:59.575Z,3.70
2023-05-05T11:41:32.826Z,22.33
2023-05-05T11:44:14.036Z,83.78
2023-05-05T11:47:04.682Z,6.18
2023-05-05T11:49:37.618Z,7.20
2023-05-05T11:52:04.513Z,6.25
2023-05-05T11:54:32.244Z,6.10
2023-05-05T11:57:07.835Z,9.23
2023-05-05T11:59:39.049Z,4.85
2023-05-05T12:02:06.737Z,4.93
2023-05-05T12:04:33.985Z,5.15
2023-05-05T12:07:00.819Z,3.78
2023-05-05T12:09:27.850Z,5.47
2023-05-05T12:11:59.852Z,4.05
2023-05-05T12:14:27.803Z,5.00
2023-05-05T12:17:07.184Z,7.72
2023-05-05T12:19:34.689Z,4.53
2023-05-05T12:22:03.221Z,5.50
2023-05-05T12:24:30.606Z,5.75
2023-05-05T12:27:13.523Z,4.50
2023-05-05T12:29:40.490Z,5.00
2023-05-05T12:32:30.539Z,6.10
2023-05-05T12:34:57.638Z,5.25
2023-05-05T12:37:27.800Z,3.13
2023-05-05T12:39:57.315Z,4.18
2023-05-05T12:42:24.168Z,3.90
2023-05-05T12:44:52.542Z,4.18
2023-05-05T12:47:36.864Z,3.08
2023-05-05T12:50:04.346Z,3.05
2023-05-05T12:52:45.315Z,3.10
2023-05-05T12:55:12.673Z,3.60
2023-05-05T12:57:58.069Z,2.20
2023-05-05T13:00:25.598Z,3.85
2023-05-05T13:02:53.442Z,3.80
2023-05-05T13:05:31.799Z,4.63
2023-05-05T13:07:59.179Z,5.07
2023-05-05T13:10:31.306Z,2.72
2023-05-05T13:12:58.632Z,6.57
2023-05-05T13:15:26.285Z,4.68
2023-05-05T13:18:01.597Z,4.97
2023-05-05T13:20:28.988Z,7.75
2023-05-05T13:22:56.371Z,5.63
2023-05-05T13:25:23.391Z,6.45
2023-05-05T13:27:50.439Z,5.93
2023-05-05T13:30:17.597Z,7.18
2023-05-05T13:32:44.911Z,4.50
2023-05-05T13:35:13.945Z,4.93
2023-05-05T13:37:46.234Z,3.17
2023-05-05T13:40:14.138Z,1.63
2023-05-05T13:42:41.582Z,6.78
2023-05-05T13:45:09.203Z,1.85
2023-05-05T13:47:38.555Z,3.38
2023-05-05T13:50:06.467Z,2.78
2023-05-05T13:52:33.588Z,4.35
2023-05-05T13:55:00.835Z,3.72
2023-05-05T13:57:28.436Z,3.15
2023-05-05T13:59:56.613Z,6.05
2023-05-05T14:02:23.600Z,2.78
2023-05-05T14:04:50.535Z,3.33
2023-05-05T14:07:17.425Z,3.85
2023-05-05T14:09:45.667Z,3.42
2023-05-05T14:12:12.659Z,5.03
2023-05-05T14:14:39.748Z,4.38
2023-05-05T14:17:06.932Z,3.05
2023-05-05T14:19:34.323Z,4.70
2023-05-05T14:22:01.481Z,3.30
2023-05-05T14:24:28.530Z,6.30
2023-05-05T14:26:55.390Z,5.63
2023-05-05T14:29:24.810Z,7.75
2023-05-05T14:31:52.530Z,3.45
2023-05-05T14:34:19.568Z,4.85
2023-05-05T14:36:46.755Z,5.60
2023-05-05T14:39:13.912Z,5.15
2023-05-05T14:41:41.180Z,5.75
2023-05-05T14:44:08.102Z,6.63
2023-05-05T14:46:35.720Z,2.95
2023-05-05T14:49:02.633Z,3.25
2023-05-05T14:51:29.911Z,2.50
2023-05-05T14:53:57.076Z,3.42
2023-05-05T14:56:26.164Z,4.32
2023-05-05T14:58:53.312Z,2.72
2023-05-05T15:01:25.022Z,3.38
2023-05-05T15:03:54.322Z,3.70
2023-05-05T15:06:21.577Z,4.18
2023-05-05T15:08:48.511Z,2.72
2023-05-05T15:11:16.558Z,3.90
2023-05-05T15:13:43.316Z,6.07
2023-05-05T15:16:11.533Z,6.30
2023-05-05T15:18:38.538Z,4.60
2023-05-05T15:21:05.830Z,5.15
2023-05-05T15:23:32.775Z,3.30
2023-05-05T15:25:59.841Z,5.68
2023-05-05T15:28:26.972Z,3.55
2023-05-05T15:30:53.850Z,8.82
2023-05-05T15:33:20.715Z,4.38
2023-05-05T15:35:47.660Z,7.57
2023-05-05T15:38:14.469Z,2.88
2023-05-05T15:40:44.216Z,6.28
2023-05-05T15:43:11.577Z,7.25
2023-05-05T15:45:41.439Z,4.60
2023-05-05T15:48:08.485Z,5.03
2023-05-05T15:50:35.667Z,6.65
2023-05-05T15:53:03.201Z,6.22
2023-05-05T15:55:30.436Z,3.95
2023-05-05T15:57:57.693Z,8.02
2023-05-05T16:00:26.016Z,6.05
2023-05-05T16:02:52.972Z,6.15
2023-05-05T16:05:22.223Z,4.03
2023-05-05T16:07:49.942Z,6.03
2023-05-05T16:10:18.895Z,5.28
2023-05-05T16:12:59.284Z,3.80
2023-05-05T16:15:26.310Z,2.22
2023-05-05T16:17:53.348Z,6.45
2023-05-05T16:20:20.626Z,4.63
2023-05-05T16:22:47.620Z,7.60
2023-05-05T16:25:18.052Z,7.75
2023-05-05T16:27:44.937Z,4.45
2023-05-05T16:30:12.885Z,9.52
2023-05-05T16:32:40.214Z,3.20
2023-05-05T16:35:07.847Z,5.40
2023-05-05T16:37:35.056Z,7.43
2023-05-05T16:40:04.484Z,6.68
2023-05-05T16:42:31.811Z,6.22
2023-05-05T16:44:58.674Z,6.70
2023-05-05T16:47:25.808Z,6.85
2023-05-05T16:49:52.696Z,7.18
2023-05-05T16:52:19.699Z,9.38
2023-05-05T16:54:48.092Z,8.07
2023-05-05T16:57:14.976Z,8.45
2023-05-05T16:59:42.240Z,8.25
2023-05-05T17:02:09.412Z,6.05
2023-05-05T17:04:36.311Z,5.57
2023-05-05T17:07:03.148Z,5.22
2023-05-05T17:09:30.374Z,8.43
2023-05-05T17:11:57.633Z,5.32
2023-05-05T17:14:24.729Z,6.15
2023-05-05T17:16:51.715Z,5.60
2023-05-05T17:19:20.888Z,5.82
2023-05-05T17:21:47.845Z,5.97
2023-05-05T17:24:14.723Z,7.85
2023-05-05T17:26:41.679Z,7.50
2023-05-05T17:29:09.671Z,5.78
2023-05-05T17:31:37.878Z,6.57
2023-05-05T17:34:05.967Z,9.10
2023-05-05T17:36:33.638Z,7.40
2023-05-05T17:39:00.542Z,9.05
2023-05-05T17:41:28.864Z,7.72
2023-05-05T17:43:56.447Z,8.77
2023-05-05T17:46:24.923Z,10.68
2023-05-05T17:48:52.500Z,7.13
2023-05-05T17:51:19.921Z,6.70
2023-05-05T17:53:46.871Z,6.60
2023-05-05T17:56:13.847Z,6.97
2023-05-05T17:58:41.463Z,6.30
2023-05-05T18:01:08.300Z,7.47
2023-05-05T18:03:35.129Z,9.40
2023-05-05T18:06:02.809Z,8.48
2023-05-05T18:08:29.779Z,7.53
2023-05-05T18:10:57.258Z,5.10
2023-05-05T18:13:24.226Z,6.75
2023-05-05T18:15:51.488Z,7.18
2023-05-05T18:18:18.828Z,5.82
2023-05-05T18:20:45.725Z,6.88
2023-05-05T18:23:13.081Z,4.65
2023-05-05T18:25:39.978Z,3.97
2023-05-05T18:28:07.310Z,9.85
2023-05-05T18:30:34.200Z,4.20
2023-05-05T18:33:01.238Z,3.65
2023-05-05T18:35:29.130Z,6.93
2023-05-05T18:37:56.491Z,5.95
2023-05-05T18:40:23.584Z,6.45
2023-05-05T18:42:51.642Z,6.38
2023-05-05T18:45:18.687Z,4.57
2023-05-05T18:47:46.069Z,6.93
2023-05-05T18:50:13.115Z,3.53
2023-05-05T18:52:41.261Z,5.28
2023-05-05T18:55:09.031Z,7.32
2023-05-05T18:57:36.077Z,3.92
2023-05-05T19:00:10.452Z,9.25
2023-05-05T19:02:37.680Z,7.72
2023-05-05T19:05:05.212Z,7.00
2023-05-05T19:07:35.386Z,8.73
2023-05-05T19:10:05.031Z,7.18
2023-05-05T19:12:32.359Z,4.82
2023-05-05T19:14:59.264Z,7.15
2023-05-05T19:17:28.056Z,6.10
2023-05-05T19:19:54.833Z,7.35
2023-05-05T19:22:27.076Z,9.73
2023-05-05T19:24:54.312Z,4.05
2023-05-05T19:27:22.497Z,8.07
2023-05-05T19:29:53.026Z,8.52
2023-05-05T19:32:21.383Z,5.82
2023-05-05T19:34:48.445Z,9.45
2023-05-05T19:37:15.730Z,7.75
2023-05-05T19:39:44.416Z,6.10
2023-05-05T19:42:18.028Z,7.15
2023-05-05T19:44:45.820Z,4.53
2023-05-05T19:47:21.119Z,4.93
2023-05-05T19:49:48.104Z,8.13
2023-05-05T19:52:15.314Z,8.48
2023-05-05T19:54:43.653Z,6.95
2023-05-05T19:57:10.955Z,6.85
2023-05-05T19:59:37.740Z,8.10
2023-05-05T20:02:06.299Z,8.43
2023-05-05T20:04:33.182Z,6.35
2023-05-05T20:07:01.854Z,10.02
2023-05-05T20:09:29.059Z,10.68
2023-05-05T20:11:58.788Z,9.65
2023-05-05T20:14:26.254Z,13.75
2023-05-05T20:16:53.470Z,15.15
2023-05-05T20:19:21.631Z,10.73
2023-05-05T20:21:48.578Z,12.43
2023-05-05T20:24:17.187Z,10.13
2023-05-05T20:26:44.154Z,11.57
2023-05-05T20:29:11.164Z,10.27
2023-05-05T20:31:46.366Z,10.68
2023-05-05T20:34:13.672Z,13.38
2023-05-05T20:36:41.089Z,13.18
2023-05-05T20:39:08.273Z,10.30
2023-05-05T20:41:36.406Z,8.05
2023-05-05T20:44:03.546Z,14.10
2023-05-05T20:46:31.973Z,15.75
2023-05-05T20:48:59.138Z,9.55
2023-05-05T20:51:31.996Z,11.65
2023-05-05T20:53:59.014Z,12.60
2023-05-05T20:56:26.395Z,10.55
2023-05-05T20:58:53.461Z,16.75
2023-05-05T21:01:28.725Z,23.15
2023-05-05T21:03:55.946Z,16.98
2023-05-05T21:06:24.471Z,15.90
2023-05-05T21:08:51.380Z,16.23
2023-05-05T21:11:18.452Z,14.45
2023-05-05T21:17:32.719Z,13.10
2023-05-05T21:19:59.667Z,11.48
2023-05-05T21:22:26.598Z,10.77
2023-05-05T21:25:12.168Z,11.70
2023-05-05T21:27:39.183Z,10.15
2023-05-05T21:30:14.074Z,13.32
2023-05-05T21:32:41.256Z,22.73
2023-05-05T21:35:10.265Z,15.10
2023-05-05T21:37:39.056Z,15.05
2023-05-05T21:40:22.388Z,12.50
2023-05-05T21:42:49.533Z,14.98
2023-05-05T21:45:18.480Z,11.90
2023-05-05T21:47:45.640Z,15.35
2023-05-05T21:50:24.337Z,11.95
2023-05-05T21:52:51.195Z,13.90
2023-05-05T21:55:19.576Z,10.77
2023-05-05T21:57:46.608Z,8.10
2023-05-05T22:00:18.011Z,10.25
2023-05-05T22:02:45.909Z,10.23
2023-05-05T22:05:13.527Z,14.30
2023-05-05T22:07:41.225Z,14.75
2023-05-05T22:10:08.631Z,16.17
2023-05-05T22:12:35.659Z,15.07
2023-05-05T22:15:03.809Z,18.48
2023-05-05T22:17:30.797Z,16.30
2023-05-05T22:19:57.930Z,16.90
2023-05-05T22:22:24.802Z,14.40
2023-05-05T22:24:51.782Z,14.48
2023-05-05T22:27:18.856Z,14.15
2023-05-05T22:29:46.747Z,14.50
2023-05-05T22:32:20.673Z,15.80
2023-05-05T22:34:47.665Z,14.00
2023-05-05T22:37:14.963Z,15.65
2023-05-05T22:39:41.923Z,18.50
2023-05-05T22:42:09.210Z,14.57
2023-05-05T22:44:36.025Z,13.77
2023-05-05T22:47:04.074Z,15.98
2023-05-05T22:49:32.333Z,13.23
2023-05-05T22:51:59.428Z,15.88
2023-05-05T22:54:26.698Z,14.70
2023-05-05T22:56:53.617Z,16.58
2023-05-05T22:59:21.030Z,14.38
2023-05-05T23:01:47.916Z,15.20
2023-05-05T23:04:17.150Z,13.40
2023-05-05T23:06:45.047Z,14.02
2023-05-05T23:09:11.843Z,15.18
2023-05-05T23:11:38.686Z,12.50
2023-05-05T23:14:06.993Z,14.05
2023-05-05T23:16:34.293Z,17.15
2023-05-05T23:19:01.374Z,15.00
2023-05-05T23:21:36.154Z,15.07
2023-05-05T23:26:33.075Z,14.18
2023-05-05T23:28:59.919Z,14.98
2023-05-05T23:31:28.434Z,14.25
2023-05-05T23:33:55.579Z,13.63
2023-05-05T23:36:22.504Z,14.55
2023-05-05T23:38:49.810Z,14.55
2023-05-05T23:41:18.448Z,14.73
2023-05-05T23:43:45.443Z,16.08
2023-05-05T23:46:12.557Z,16.90
2023-05-05T23:48:43.401Z,13.27
2023-05-05T23:51:10.902Z,12.88
2023-05-05T23:53:37.842Z,15.15
2023-05-05T23:56:08.991Z,15.32
2023-05-05T23:58:36.279Z,16.33
